createdAt,value
2023-04-25T00:03:13.626Z,99645.84
2023-04-25T00:08:15.229Z,99637.22
2023-04-25T00:13:18.331Z,99645.19
2023-04-25T00:18:20.996Z,99644.03
2023-04-25T00:23:22.495Z,99643.53
2023-04-25T00:28:23.832Z,99657.66
2023-04-25T00:33:25.344Z,99654.75
2023-04-25T00:38:26.711Z,99643.81
2023-04-25T00:43:31.145Z,99637.63
2023-04-25T00:48:32.616Z,99646.88
2023-04-25T00:53:34.171Z,99638.63
2023-04-25T00:58:35.766Z,99628.25
2023-04-25T01:03:44.011Z,99636.47
2023-04-25T01:08:45.704Z,99631.16
2023-04-25T01:13:47.149Z,99634.63
2023-04-25T01:18:49.220Z,99634.38
2023-04-25T01:23:51.207Z,99637.25
2023-04-25T01:28:53.096Z,99628.81
2023-04-25T01:33:54.510Z,99618.00
2023-04-25T01:38:56.254Z,99628.38
2023-04-25T01:43:57.901Z,99628.34
2023-04-25T01:48:59.248Z,99653.97
2023-04-25T01:54:01.519Z,99646.69
2023-04-25T01:59:02.929Z,99648.28
2023-04-25T02:04:04.567Z,99640.38
2023-04-25T02:09:06.163Z,99651.56
2023-04-25T02:14:07.503Z,99650.94
2023-04-25T02:19:08.884Z,99639.91
2023-04-25T02:24:10.419Z,99643.88
2023-04-25T02:29:11.857Z,99637.25
2023-04-25T02:34:13.218Z,99639.06
2023-04-25T02:39:14.576Z,99636.84
2023-04-25T02:44:15.955Z,99641.88
2023-04-25T02:49:17.293Z,99642.13
2023-04-25T02:54:18.656Z,99641.94
2023-04-25T02:59:20.258Z,99633.16
2023-04-25T03:04:24.670Z,99634.25
2023-04-25T03:09:26.241Z,99641.50
2023-04-25T03:14:27.590Z,99643.28
2023-04-25T03:19:28.935Z,99641.22
2023-04-25T03:24:30.370Z,99646.50
2023-04-25T03:29:31.735Z,99646.66
2023-04-25T03:34:33.138Z,99643.38
2023-04-25T03:39:34.510Z,99653.22
2023-04-25T03:44:35.832Z,99652.31
2023-04-25T03:49:37.740Z,99664.81
2023-04-25T03:54:39.483Z,99667.53
2023-04-25T03:59:40.986Z,99674.19
2023-04-25T04:04:42.604Z,99673.13
2023-04-25T04:09:44.226Z,99674.22
2023-04-25T04:14:45.574Z,99677.16
2023-04-25T04:19:47.033Z,99695.03
2023-04-25T04:24:48.481Z,99705.41
2023-04-25T04:29:51.146Z,99709.00
2023-04-25T04:34:53.162Z,99701.78
2023-04-25T04:39:54.659Z,99714.44
2023-04-25T04:44:56.084Z,99708.72
2023-04-25T04:49:58.091Z,99715.56
2023-04-25T04:54:59.535Z,99726.13
2023-04-25T05:00:01.464Z,99734.22
2023-04-25T05:05:02.870Z,99751.09
2023-04-25T05:10:04.669Z,99752.00
2023-04-25T05:15:06.657Z,99756.97
2023-04-25T05:20:10.226Z,99750.88
2023-04-25T05:25:11.872Z,99750.88
2023-04-25T05:30:13.277Z,99752.22
2023-04-25T05:35:14.658Z,99752.50
2023-04-25T05:40:16.172Z,99769.22
2023-04-25T05:45:18.493Z,99764.63
2023-04-25T05:50:19.843Z,99762.66
2023-04-25T05:55:21.187Z,99767.13
2023-04-25T06:00:23.740Z,99770.06
2023-04-25T06:05:25.929Z,99768.47
2023-04-25T06:10:27.538Z,99768.59
2023-04-25T06:15:29.382Z,99762.84
2023-04-25T06:20:30.801Z,99765.53
2023-04-25T06:25:32.203Z,99765.97
2023-04-25T06:30:33.523Z,99769.66
2023-04-25T06:35:35.370Z,99767.59
2023-04-25T06:40:36.801Z,99772.84
2023-04-25T06:45:38.137Z,99772.97
2023-04-25T06:50:39.589Z,99777.59
2023-04-25T06:55:41.348Z,99776.94
2023-04-25T07:00:43.158Z,99782.47
2023-04-25T07:05:46.654Z,99795.59
2023-04-25T07:10:49.877Z,99796.44
2023-04-25T07:15:51.652Z,99807.75
2023-04-25T07:20:52.999Z,99806.47
2023-04-25T07:25:54.477Z,99810.59
2023-04-25T07:30:55.795Z,99796.53
2023-04-25T07:35:57.496Z,99796.75
2023-04-25T07:40:58.859Z,99809.44
2023-04-25T07:46:00.381Z,99818.34
2023-04-25T07:51:01.772Z,99825.53
2023-04-25T07:56:03.136Z,99827.25
2023-04-25T08:01:04.633Z,99836.94
2023-04-25T08:06:08.126Z,99831.38
2023-04-25T08:11:10.263Z,99840.88
2023-04-25T08:16:11.701Z,99855.25
2023-04-25T08:21:13.302Z,99855.16
2023-04-25T08:26:14.722Z,99855.59
2023-04-25T08:31:16.110Z,99857.59
2023-04-25T08:36:27.872Z,99869.59
2023-04-25T08:41:41.713Z,99867.16
2023-04-25T08:46:43.737Z,99866.56
2023-04-25T08:51:47.799Z,99863.88
2023-04-25T08:56:49.490Z,99883.16
2023-04-25T09:01:52.320Z,99879.53
2023-04-25T09:06:53.660Z,99898.59
2023-04-25T09:11:55.523Z,99895.19
2023-04-25T09:16:56.874Z,99900.00
2023-04-25T09:22:00.250Z,99905.44
2023-04-25T09:27:05.000Z,99911.41
2023-04-25T09:32:25.571Z,99913.25
2023-04-25T09:37:31.352Z,99919.19
2023-04-25T09:42:35.344Z,99917.88
2023-04-25T09:47:38.764Z,99919.50
2023-04-25T09:52:40.296Z,99925.75
2023-04-25T09:57:42.276Z,99928.88
2023-04-25T10:02:47.735Z,99937.81
2023-04-25T10:07:49.276Z,99932.59
2023-04-25T10:12:50.776Z,99944.25
2023-04-25T10:17:52.671Z,99957.56
2023-04-25T10:22:57.388Z,99967.72
2023-04-25T10:28:00.650Z,99979.91
2023-04-25T10:33:02.018Z,99983.97
2023-04-25T10:38:10.864Z,99993.13
2023-04-25T10:43:41.585Z,99983.59
2023-04-25T10:48:51.827Z,99993.75
2023-04-25T10:53:56.286Z,99991.53
2023-04-25T10:59:12.818Z,99989.53
2023-04-25T11:04:32.035Z,99991.69
2023-04-25T11:09:35.847Z,100002.53
2023-04-25T11:14:37.498Z,99994.31
2023-04-25T11:19:38.829Z,99989.06
2023-04-25T11:24:40.349Z,99984.97
2023-04-25T11:29:42.087Z,99986.66
2023-04-25T11:34:46.108Z,99979.19
2023-04-25T11:39:48.161Z,99987.72
2023-04-25T11:44:49.713Z,100002.03
2023-04-25T11:49:54.496Z,99998.09
2023-04-25T11:54:57.193Z,100004.75
2023-04-25T12:00:08.121Z,100013.66
2023-04-25T12:05:29.475Z,100024.84
2023-04-25T12:10:32.182Z,100037.41
2023-04-25T12:15:34.499Z,100038.59
2023-04-25T12:20:36.351Z,100041.66
2023-04-25T12:25:43.039Z,100042.47
2023-04-25T12:31:05.137Z,100037.09
2023-04-25T12:36:11.988Z,100045.75
2023-04-25T12:41:13.366Z,100033.78
2023-04-25T12:46:14.750Z,100035.75
2023-04-25T12:51:16.258Z,100036.59
2023-04-25T12:56:17.640Z,100032.81
2023-04-25T13:01:19.005Z,100037.00
2023-04-25T13:06:21.552Z,100032.00
2023-04-25T13:11:22.913Z,100049.88
2023-04-25T13:16:24.414Z,100051.34
2023-04-25T13:21:26.385Z,100042.81
2023-04-25T13:26:27.826Z,100048.44
2023-04-25T13:31:29.215Z,100054.44
2023-04-25T13:36:30.593Z,100047.41
2023-04-25T13:41:32.051Z,100058.63
2023-04-25T13:46:45.580Z,100052.38
2023-04-25T13:51:48.670Z,100051.56
2023-04-25T13:56:51.401Z,100061.88
2023-04-25T14:01:52.949Z,100050.16
2023-04-25T14:06:54.417Z,100056.44
2023-04-25T14:11:56.120Z,100060.69
2023-04-25T14:16:58.190Z,100070.50
2023-04-25T14:21:59.612Z,100063.22
2023-04-25T14:27:01.670Z,100059.19
2023-04-25T14:32:03.549Z,100066.09
2023-04-25T14:37:04.948Z,100080.41
2023-04-25T14:42:06.420Z,100074.03
2023-04-25T14:47:07.854Z,100086.72
2023-04-25T14:52:09.262Z,100091.06
2023-04-25T14:57:10.611Z,100095.44
2023-04-25T15:02:12.300Z,100107.91
2023-04-25T15:07:13.640Z,100111.63
2023-04-25T15:12:15.332Z,100109.72
2023-04-25T15:17:16.934Z,100118.44
2023-04-25T15:22:18.287Z,100122.63
2023-04-25T15:27:19.622Z,100115.78
2023-04-25T15:32:22.113Z,100126.25
2023-04-25T15:37:23.505Z,100120.44
2023-04-25T15:42:24.877Z,100108.94
2023-04-25T15:47:27.244Z,100104.56
2023-04-25T15:52:28.746Z,100114.97
2023-04-25T15:57:30.858Z,100105.53
2023-04-25T16:02:32.429Z,100114.84
2023-04-25T16:07:33.852Z,100110.78
2023-04-25T16:12:36.258Z,100116.47
2023-04-25T16:17:37.659Z,100117.84
2023-04-25T16:22:40.644Z,100117.78
2023-04-25T16:27:42.021Z,100116.28
2023-04-25T16:32:45.396Z,100130.47
2023-04-25T16:37:47.686Z,100138.44
2023-04-25T16:42:49.109Z,100140.06
2023-04-25T16:47:50.557Z,100132.22
2023-04-25T16:52:52.004Z,100130.00
2023-04-25T16:57:53.330Z,100134.25
2023-04-25T17:02:54.810Z,100141.19
2023-04-25T17:07:56.815Z,100153.16
2023-04-25T17:12:58.162Z,100155.47
2023-04-25T17:18:00.625Z,100166.19
2023-04-25T17:23:02.208Z,100165.19
2023-04-25T17:28:03.787Z,100170.19
2023-04-25T17:33:06.581Z,100170.81
2023-04-25T17:38:08.646Z,100171.63
2023-04-25T17:43:10.051Z,100179.97
2023-04-25T17:48:11.459Z,100191.84
2023-04-25T17:53:12.798Z,100197.22
2023-04-25T17:58:14.826Z,100202.25
2023-04-25T18:03:16.405Z,100209.81
2023-04-25T18:08:18.438Z,100228.53
2023-04-25T18:13:19.762Z,100231.28
2023-04-25T18:18:25.313Z,100238.91
2023-04-25T18:23:27.430Z,100243.91
2023-04-25T18:28:29.210Z,100243.81
2023-04-25T18:33:31.509Z,100258.88
2023-04-25T18:38:35.843Z,100259.50
2023-04-25T18:43:37.678Z,100263.69
2023-04-25T18:48:39.030Z,100275.47
2023-04-25T18:53:41.267Z,100277.81
2023-04-25T18:58:42.747Z,100295.34
2023-04-25T19:03:44.793Z,100293.56
2023-04-25T19:08:46.576Z,100299.25
2023-04-25T19:13:51.228Z,100299.97
2023-04-25T19:18:54.582Z,100314.84
2023-04-25T19:23:56.429Z,100305.41
2023-04-25T19:29:09.726Z,100311.06
2023-04-25T19:34:12.843Z,100316.41
2023-04-25T19:39:14.485Z,100322.13
2023-04-25T19:44:15.885Z,100331.03
2023-04-25T19:49:17.211Z,100339.09
2023-04-25T19:54:18.555Z,100332.03
2023-04-25T19:59:20.055Z,100329.53
2023-04-25T20:04:21.454Z,100329.88
2023-04-25T20:09:23.267Z,100330.00
2023-04-25T20:14:24.579Z,100343.97
2023-04-25T20:19:25.896Z,100349.34
2023-04-25T20:24:27.370Z,100349.50
2023-04-25T20:29:28.683Z,100359.44
2023-04-25T20:34:31.516Z,100358.31
2023-04-25T20:39:33.197Z,100350.09
2023-04-25T20:44:34.528Z,100354.81
2023-04-25T20:49:36.427Z,100355.97
2023-04-25T20:54:38.372Z,100365.72
2023-04-25T20:59:39.676Z,100369.06
2023-04-25T21:04:42.533Z,100371.91
2023-04-25T21:09:45.345Z,100370.25
2023-04-25T21:14:46.712Z,100369.97
2023-04-25T21:19:48.034Z,100379.69
2023-04-25T21:24:50.698Z,100381.56
2023-04-25T21:29:52.040Z,100383.38
2023-04-25T21:34:53.367Z,100381.22
2023-04-25T21:39:54.699Z,100379.03
2023-04-25T21:44:56.099Z,100383.88
2023-04-25T21:49:59.200Z,100369.28
2023-04-25T21:55:00.868Z,100367.41
2023-04-25T22:00:04.330Z,100381.84
2023-04-25T22:05:06.409Z,100391.22
2023-04-25T22:10:08.212Z,100394.50
2023-04-25T22:15:10.316Z,100397.53
2023-04-25T22:20:13.775Z,100402.22
2023-04-25T22:25:15.151Z,100411.38
2023-04-25T22:30:16.977Z,100419.94
2023-04-25T22:35:19.188Z,100428.59
2023-04-25T22:40:20.554Z,100434.75
2023-04-25T22:45:21.900Z,100430.84
2023-04-25T22:50:23.266Z,100438.06
2023-04-25T22:55:26.389Z,100443.28
2023-04-25T23:00:30.176Z,100447.25
2023-04-25T23:05:32.712Z,100450.25
2023-04-25T23:10:34.166Z,100452.25
2023-04-25T23:15:35.815Z,100456.09
2023-04-25T23:20:37.353Z,100463.44
2023-04-25T23:25:41.622Z,100468.56
2023-04-25T23:30:43.017Z,100463.53
2023-04-25T23:35:44.382Z,100467.53
2023-04-25T23:40:45.920Z,100469.53
2023-04-25T23:45:47.365Z,100466.41
2023-04-25T23:50:48.690Z,100476.75
2023-04-25T23:55:50.023Z,100481.50
